createdAt,value
2023-07-24T00:00:29.998Z,52.27
2023-07-24T00:02:57.949Z,52.14
2023-07-24T00:05:24.906Z,52.30
2023-07-24T00:07:51.978Z,52.44
2023-07-24T00:10:18.824Z,52.74
2023-07-24T00:12:45.660Z,52.90
2023-07-24T00:15:12.419Z,52.98
2023-07-24T00:17:39.278Z,53.04
2023-07-24T00:20:07.641Z,53.05
2023-07-24T00:22:34.366Z,53.20
2023-07-24T00:25:01.076Z,53.33
2023-07-24T00:27:28.974Z,53.34
2023-07-24T00:29:55.714Z,53.51
2023-07-24T00:32:22.493Z,53.30
2023-07-24T00:34:49.498Z,53.43
2023-07-24T00:37:16.559Z,53.44
2023-07-24T00:39:43.286Z,53.41
2023-07-24T00:42:10.047Z,53.56
2023-07-24T00:44:37.693Z,53.63
2023-07-24T00:47:05.849Z,53.60
2023-07-24T00:49:32.777Z,53.70
2023-07-24T00:51:59.666Z,53.77
2023-07-24T00:54:31.733Z,53.89
2023-07-24T00:56:58.399Z,54.05
2023-07-24T00:59:25.138Z,54.17
2023-07-24T01:01:52.640Z,54.42
2023-07-24T01:04:20.705Z,54.50
2023-07-24T01:06:47.841Z,54.58
2023-07-24T01:09:14.739Z,54.72
2023-07-24T01:12:25.106Z,54.74
2023-07-24T01:14:59.546Z,54.68
2023-07-24T01:17:30.295Z,54.68
2023-07-24T01:20:00.208Z,54.69
2023-07-24T01:22:30.185Z,54.63
2023-07-24T01:25:30.497Z,54.68
2023-07-24T01:27:57.291Z,54.85
2023-07-24T01:30:24.114Z,54.78
2023-07-24T01:32:51.049Z,54.79
2023-07-24T01:35:18.396Z,54.80
2023-07-24T01:37:48.113Z,54.80
2023-07-24T01:40:16.231Z,54.81
2023-07-24T01:42:43.618Z,54.91
2023-07-24T01:45:12.602Z,54.99
2023-07-24T01:47:40.005Z,55.17
2023-07-24T01:50:07.532Z,54.98
2023-07-24T01:52:34.442Z,54.96
2023-07-24T01:55:01.205Z,54.96
2023-07-24T01:57:28.029Z,54.86
2023-07-24T01:59:54.873Z,54.95
2023-07-24T02:02:21.928Z,54.94
2023-07-24T02:04:48.710Z,54.95
2023-07-24T02:07:15.489Z,54.96
2023-07-24T02:09:42.241Z,54.91
2023-07-24T02:12:09.126Z,54.89
2023-07-24T02:14:35.945Z,54.76
2023-07-24T02:17:02.658Z,54.86
2023-07-24T02:19:29.453Z,55.07
2023-07-24T02:21:56.179Z,55.07
2023-07-24T02:24:23.000Z,55.10
2023-07-24T02:26:50.757Z,55.15
2023-07-24T02:29:17.528Z,55.33
2023-07-24T02:31:44.299Z,55.39
2023-07-24T02:34:11.067Z,55.39
2023-07-24T02:36:42.537Z,55.57
2023-07-24T02:39:09.846Z,55.66
2023-07-24T02:41:36.662Z,55.79
2023-07-24T02:44:05.136Z,55.73
2023-07-24T02:46:32.615Z,55.77
2023-07-24T02:49:00.084Z,55.81
2023-07-24T02:51:26.897Z,55.85
2023-07-24T02:53:55.604Z,55.87
2023-07-24T02:56:23.182Z,55.95
2023-07-24T02:58:50.313Z,56.25
2023-07-24T03:01:17.260Z,56.44
2023-07-24T03:03:44.223Z,56.57
2023-07-24T03:06:11.012Z,56.71
2023-07-24T03:08:37.734Z,56.90
2023-07-24T03:11:08.563Z,56.90
2023-07-24T03:13:35.370Z,57.07
2023-07-24T03:16:02.130Z,57.04
2023-07-24T03:18:28.993Z,56.99
2023-07-24T03:20:58.261Z,56.92
2023-07-24T03:23:24.954Z,56.88
2023-07-24T03:25:51.707Z,56.87
2023-07-24T03:28:18.442Z,56.84
2023-07-24T03:30:45.363Z,56.84
2023-07-24T03:33:13.355Z,56.77
2023-07-24T03:35:40.519Z,56.79
2023-07-24T03:38:07.232Z,56.72
2023-07-24T03:40:34.054Z,56.78
2023-07-24T03:43:01.009Z,56.83
2023-07-24T03:45:27.823Z,56.77
2023-07-24T03:47:54.692Z,56.77
2023-07-24T03:50:21.465Z,56.80
2023-07-24T03:52:48.308Z,56.59
2023-07-24T03:55:15.149Z,56.56
2023-07-24T03:57:41.900Z,56.69
2023-07-24T04:00:09.341Z,56.64
2023-07-24T04:02:42.046Z,56.79
2023-07-24T04:05:09.121Z,56.95
2023-07-24T04:07:36.005Z,57.15
2023-07-24T04:10:02.987Z,57.28
2023-07-24T04:12:30.796Z,57.36
2023-07-24T04:14:57.607Z,57.64
2023-07-24T04:17:24.619Z,57.79
2023-07-24T04:19:51.580Z,57.95
2023-07-24T04:22:18.351Z,58.04
2023-07-24T04:24:45.075Z,58.27
2023-07-24T04:27:11.830Z,58.36
2023-07-24T04:29:38.652Z,58.44
2023-07-24T04:32:05.477Z,58.54
2023-07-24T04:34:34.252Z,58.65
2023-07-24T04:37:01.094Z,58.62
2023-07-24T04:39:27.827Z,58.65
2023-07-24T04:41:54.603Z,58.71
2023-07-24T04:44:21.364Z,58.77
2023-07-24T04:46:48.117Z,58.80
2023-07-24T04:49:14.839Z,58.94
2023-07-24T04:51:41.664Z,59.05
2023-07-24T04:54:08.519Z,59.07
2023-07-24T04:56:35.309Z,58.98
2023-07-24T04:59:02.051Z,59.02
2023-07-24T05:01:28.924Z,58.92
2023-07-24T05:03:55.666Z,58.92
2023-07-24T05:06:22.866Z,58.82
2023-07-24T05:08:49.877Z,58.97
2023-07-24T05:11:16.830Z,58.87
2023-07-24T05:13:43.569Z,58.67
2023-07-24T05:16:10.378Z,58.68
2023-07-24T05:18:39.199Z,58.65
2023-07-24T05:21:07.453Z,59.00
2023-07-24T05:23:34.348Z,58.74
2023-07-24T05:26:03.159Z,58.83
2023-07-24T05:28:31.924Z,59.26
2023-07-24T05:31:05.929Z,59.44
2023-07-24T05:33:33.558Z,59.19
2023-07-24T05:36:05.006Z,59.79
2023-07-24T05:38:32.072Z,60.11
2023-07-24T05:41:03.878Z,60.12
2023-07-24T05:43:32.312Z,60.37
2023-07-24T05:45:59.715Z,60.31
2023-07-24T05:48:26.649Z,60.07
2023-07-24T05:50:53.810Z,60.03
2023-07-24T05:53:20.750Z,60.01
2023-07-24T05:55:47.495Z,59.80
2023-07-24T05:58:14.313Z,59.32
2023-07-24T06:00:40.978Z,59.32
2023-07-24T06:03:08.965Z,59.51
2023-07-24T06:05:36.267Z,59.31
2023-07-24T06:08:03.168Z,59.47
2023-07-24T06:10:30.099Z,59.60
2023-07-24T06:12:57.075Z,59.76
2023-07-24T06:15:24.000Z,59.72
2023-07-24T06:17:53.570Z,59.70
2023-07-24T06:20:21.975Z,59.63
2023-07-24T06:22:48.965Z,59.36
2023-07-24T06:25:15.836Z,59.22
2023-07-24T06:27:42.582Z,59.13
2023-07-24T06:30:15.812Z,58.96
2023-07-24T06:32:44.586Z,58.93
2023-07-24T06:35:11.485Z,58.73
2023-07-24T06:37:38.325Z,58.58
2023-07-24T06:40:06.295Z,58.41
2023-07-24T06:42:33.245Z,58.19
2023-07-24T06:45:00.277Z,57.83
2023-07-24T06:47:27.418Z,57.32
2023-07-24T06:49:54.547Z,57.21
2023-07-24T06:52:21.789Z,57.03
2023-07-24T06:54:48.716Z,56.37
2023-07-24T06:57:15.936Z,55.64
2023-07-24T06:59:42.840Z,54.64
2023-07-24T07:02:09.929Z,54.48
2023-07-24T07:04:36.834Z,53.84
2023-07-24T07:07:04.137Z,53.41
2023-07-24T07:09:31.399Z,53.40
2023-07-24T07:11:58.812Z,53.69
2023-07-24T07:14:25.936Z,53.89
2023-07-24T07:16:52.672Z,53.94
2023-07-24T07:19:19.458Z,54.30
2023-07-24T07:21:46.144Z,54.43
2023-07-24T07:24:13.060Z,54.50
2023-07-24T07:26:39.857Z,54.58
2023-07-24T07:29:06.742Z,54.61
2023-07-24T07:31:33.731Z,54.37
2023-07-24T07:34:00.552Z,54.48
2023-07-24T07:36:27.737Z,54.51
2023-07-24T07:38:54.900Z,54.72
2023-07-24T07:41:21.885Z,55.10
2023-07-24T07:43:48.700Z,55.38
2023-07-24T07:46:15.566Z,55.29
2023-07-24T07:48:42.314Z,55.05
2023-07-24T07:51:09.133Z,54.72
2023-07-24T07:53:35.834Z,54.17
2023-07-24T07:56:02.958Z,53.46
2023-07-24T07:58:29.833Z,53.11
2023-07-24T08:00:56.857Z,53.06
2023-07-24T08:03:24.062Z,53.08
2023-07-24T08:05:50.925Z,53.30
2023-07-24T08:08:17.698Z,53.13
2023-07-24T08:10:44.524Z,52.86
2023-07-24T08:13:11.633Z,52.97
2023-07-24T08:15:39.168Z,53.44
2023-07-24T08:18:06.809Z,53.56
2023-07-24T08:20:37.490Z,53.78
2023-07-24T08:23:04.614Z,54.05
2023-07-24T08:25:31.729Z,54.42
2023-07-24T08:28:05.238Z,54.38
2023-07-24T08:30:35.728Z,54.12
2023-07-24T08:33:02.902Z,53.58
2023-07-24T08:35:30.239Z,52.79
2023-07-24T08:37:57.391Z,52.41
2023-07-24T08:40:24.299Z,52.28
2023-07-24T08:42:54.439Z,52.68
2023-07-24T08:45:21.515Z,52.64
2023-07-24T08:47:49.846Z,52.55
2023-07-24T08:50:18.409Z,52.27
2023-07-24T08:52:46.168Z,51.92
2023-07-24T08:55:13.281Z,51.68
2023-07-24T08:57:40.036Z,51.67
2023-07-24T09:00:07.472Z,51.71
2023-07-24T09:02:36.214Z,51.97
2023-07-24T09:05:04.626Z,52.00
2023-07-24T09:07:32.331Z,52.47
2023-07-24T09:09:59.306Z,52.37
2023-07-24T09:12:26.075Z,52.15
2023-07-24T09:15:04.304Z,52.11
2023-07-24T09:17:31.081Z,51.98
2023-07-24T09:19:58.978Z,51.96
2023-07-24T09:22:27.955Z,51.55
2023-07-24T09:24:57.213Z,51.44
2023-07-24T09:27:30.128Z,50.70
2023-07-24T09:29:59.288Z,50.49
2023-07-24T09:32:27.988Z,50.05
2023-07-24T09:34:55.705Z,49.84
2023-07-24T09:37:27.291Z,49.35
2023-07-24T09:39:54.447Z,49.03
2023-07-24T09:42:31.883Z,48.80
2023-07-24T09:44:58.846Z,49.22
2023-07-24T09:47:32.814Z,48.84
2023-07-24T09:50:13.039Z,48.45
2023-07-24T09:52:43.045Z,48.47
2023-07-24T09:55:32.737Z,48.42
2023-07-24T09:58:01.690Z,48.97
2023-07-24T10:00:28.825Z,49.45
2023-07-24T10:02:56.659Z,48.85
2023-07-24T10:05:24.228Z,48.85
2023-07-24T10:07:52.635Z,48.78
2023-07-24T10:10:19.585Z,48.45
2023-07-24T10:12:46.749Z,48.15
2023-07-24T10:15:14.468Z,47.95
2023-07-24T10:17:43.384Z,47.83
2023-07-24T10:20:13.058Z,47.35
2023-07-24T10:22:44.314Z,47.38
2023-07-24T10:25:11.973Z,47.77
2023-07-24T10:27:47.507Z,47.85
2023-07-24T10:30:28.256Z,47.84
2023-07-24T10:33:08.439Z,47.50
2023-07-24T10:35:44.413Z,46.96
2023-07-24T10:38:17.415Z,46.69
2023-07-24T10:40:47.034Z,46.73
2023-07-24T10:43:18.696Z,47.26
2023-07-24T10:45:55.479Z,47.38
2023-07-24T10:48:27.006Z,47.60
2023-07-24T10:50:55.128Z,47.95
2023-07-24T10:53:24.052Z,48.20
2023-07-24T10:55:52.663Z,48.26
2023-07-24T10:58:19.500Z,48.46
2023-07-24T11:00:47.942Z,48.78
2023-07-24T11:03:15.958Z,49.06
2023-07-24T11:05:44.376Z,48.96
2023-07-24T11:08:18.691Z,48.68
2023-07-24T11:10:57.810Z,48.69
2023-07-24T11:13:27.096Z,47.94
2023-07-24T11:15:55.011Z,47.73
2023-07-24T11:18:23.673Z,47.67
2023-07-24T11:20:53.056Z,47.73
2023-07-24T11:23:20.309Z,48.14
2023-07-24T11:25:47.895Z,48.45
2023-07-24T11:28:16.093Z,49.04
2023-07-24T11:30:44.629Z,49.46
2023-07-24T11:33:16.142Z,49.84
2023-07-24T11:35:44.702Z,49.41
2023-07-24T11:38:12.019Z,49.46
2023-07-24T11:40:42.226Z,49.95
2023-07-24T11:43:19.829Z,50.06
2023-07-24T11:45:50.180Z,49.31
2023-07-24T11:48:17.101Z,49.51
2023-07-24T11:50:48.774Z,49.69
2023-07-24T11:53:23.346Z,50.21
2023-07-24T11:55:52.100Z,49.93
2023-07-24T11:58:19.471Z,49.71
2023-07-24T12:00:48.400Z,49.82
2023-07-24T12:03:20.996Z,49.82
2023-07-24T12:05:50.427Z,49.79
2023-07-24T12:08:21.255Z,49.51
2023-07-24T12:10:47.990Z,49.37
2023-07-24T12:13:14.670Z,49.20
2023-07-24T12:15:41.450Z,49.03
2023-07-24T12:18:08.634Z,48.37
2023-07-24T12:20:35.929Z,47.61
2023-07-24T12:23:02.969Z,47.03
2023-07-24T12:25:29.866Z,46.58
2023-07-24T12:27:56.577Z,46.08
2023-07-24T12:30:23.434Z,46.10
2023-07-24T12:32:50.342Z,46.38
2023-07-24T12:35:18.728Z,46.03
2023-07-24T12:37:46.986Z,45.77
2023-07-24T12:40:14.690Z,46.04
2023-07-24T12:42:41.515Z,45.69
2023-07-24T12:45:08.565Z,45.41
2023-07-24T12:47:35.316Z,45.62
2023-07-24T12:50:02.476Z,45.89
2023-07-24T12:52:30.513Z,45.95
2023-07-24T12:55:02.328Z,46.34
2023-07-24T12:57:30.141Z,46.64
2023-07-24T12:59:56.905Z,47.27
2023-07-24T13:02:23.759Z,47.88
2023-07-24T13:04:50.426Z,48.18
2023-07-24T13:07:17.377Z,48.39
2023-07-24T13:09:45.532Z,48.89
2023-07-24T13:12:12.262Z,49.05
2023-07-24T13:14:41.181Z,49.35
2023-07-24T13:17:12.139Z,49.63
2023-07-24T13:19:39.021Z,50.13
2023-07-24T13:22:06.165Z,50.31
2023-07-24T13:24:33.492Z,50.61
2023-07-24T13:27:00.302Z,50.85
2023-07-24T13:29:27.088Z,51.44
2023-07-24T13:31:54.113Z,51.64
2023-07-24T13:34:21.469Z,51.87
2023-07-24T13:36:48.684Z,51.76
2023-07-24T13:39:15.635Z,51.82
2023-07-24T13:41:43.062Z,51.76
2023-07-24T13:44:11.405Z,51.43
2023-07-24T13:46:40.424Z,50.50
2023-07-24T13:49:08.618Z,49.56
2023-07-24T13:51:35.505Z,49.33
2023-07-24T13:54:03.529Z,49.13
2023-07-24T13:56:32.404Z,48.59
2023-07-24T13:58:59.465Z,46.63
2023-07-24T14:01:26.623Z,44.69
2023-07-24T14:03:53.859Z,45.03
2023-07-24T14:06:20.826Z,45.85
2023-07-24T14:08:47.577Z,46.40
2023-07-24T14:11:14.419Z,46.46
2023-07-24T14:13:41.163Z,46.02
2023-07-24T14:16:07.963Z,46.35
2023-07-24T14:18:34.761Z,46.06
2023-07-24T14:21:02.110Z,45.69
2023-07-24T14:23:28.881Z,45.22
2023-07-24T14:25:55.537Z,45.14
2023-07-24T14:28:22.183Z,44.76
2023-07-24T14:30:48.865Z,44.72
2023-07-24T14:33:15.644Z,45.09
2023-07-24T14:35:42.364Z,45.38
2023-07-24T14:38:09.086Z,45.20
2023-07-24T14:40:35.839Z,45.08
2023-07-24T14:43:05.575Z,45.12
2023-07-24T14:45:34.598Z,43.68
2023-07-24T14:48:01.420Z,41.60
2023-07-24T14:50:28.302Z,41.39
2023-07-24T14:52:55.032Z,41.05
2023-07-24T14:55:21.895Z,40.43
2023-07-24T14:57:49.010Z,39.77
2023-07-24T15:00:17.484Z,39.07
2023-07-24T15:02:44.845Z,38.85
2023-07-24T15:05:11.966Z,38.80
2023-07-24T15:07:39.137Z,38.88
2023-07-24T15:10:06.974Z,38.83
2023-07-24T15:12:33.832Z,39.22
2023-07-24T15:15:00.751Z,39.84
2023-07-24T15:17:27.717Z,40.15
2023-07-24T15:19:54.858Z,40.32
2023-07-24T15:22:21.582Z,40.63
2023-07-24T15:24:48.461Z,40.97
2023-07-24T15:27:15.600Z,41.26
2023-07-24T15:29:42.342Z,41.43
2023-07-24T15:32:09.287Z,41.53
2023-07-24T15:34:39.357Z,41.87
2023-07-24T15:37:07.135Z,42.04
2023-07-24T15:39:33.863Z,42.16
2023-07-24T15:42:00.610Z,42.22
2023-07-24T15:44:27.313Z,42.64
2023-07-24T15:46:54.057Z,42.76
2023-07-24T15:49:20.853Z,42.55
2023-07-24T15:51:47.667Z,42.96
2023-07-24T15:54:14.355Z,42.59
2023-07-24T15:56:41.388Z,42.55
2023-07-24T15:59:10.164Z,42.60
2023-07-24T16:01:36.874Z,42.24
2023-07-24T16:04:03.648Z,42.84
2023-07-24T16:06:30.596Z,43.03
2023-07-24T16:08:57.362Z,43.07
2023-07-24T16:11:24.317Z,42.93
2023-07-24T16:13:51.029Z,42.75
2023-07-24T16:16:17.761Z,42.59
2023-07-24T16:18:44.880Z,42.66
2023-07-24T16:21:11.549Z,42.69
2023-07-24T16:23:38.422Z,42.84
2023-07-24T16:26:05.216Z,42.30
2023-07-24T16:28:31.980Z,41.93
2023-07-24T16:30:59.182Z,42.25
2023-07-24T16:33:26.439Z,42.00
2023-07-24T16:35:53.474Z,42.09
2023-07-24T16:38:20.277Z,41.68
2023-07-24T16:40:47.000Z,41.48
2023-07-24T16:43:13.683Z,41.62
2023-07-24T16:45:40.384Z,41.49
2023-07-24T16:48:07.360Z,41.27
2023-07-24T16:50:36.620Z,41.36
2023-07-24T16:53:04.744Z,40.94
2023-07-24T16:55:31.554Z,40.91
2023-07-24T16:57:58.313Z,40.80
2023-07-24T17:00:25.084Z,41.15
2023-07-24T17:02:52.055Z,41.07
2023-07-24T17:05:19.056Z,41.23
2023-07-24T17:07:45.992Z,41.17
2023-07-24T17:10:12.937Z,41.40
2023-07-24T17:12:39.672Z,41.58
2023-07-24T17:15:07.956Z,41.79
2023-07-24T17:17:34.732Z,41.68
2023-07-24T17:20:01.409Z,41.79
2023-07-24T17:22:28.098Z,41.81
2023-07-24T17:24:54.899Z,41.80
2023-07-24T17:27:23.076Z,42.06
2023-07-24T17:29:49.940Z,42.33
2023-07-24T17:32:20.273Z,42.61
2023-07-24T17:34:46.978Z,42.83
2023-07-24T17:37:21.235Z,43.05
2023-07-24T17:39:55.519Z,43.16
2023-07-24T17:42:22.360Z,43.17
2023-07-24T17:44:49.225Z,43.13
2023-07-24T17:47:16.037Z,43.25
2023-07-24T17:49:47.610Z,43.45
2023-07-24T17:52:25.122Z,43.45
2023-07-24T17:54:51.781Z,43.49
2023-07-24T17:57:18.547Z,43.47
2023-07-24T17:59:45.357Z,43.51
2023-07-24T18:02:12.362Z,43.47
2023-07-24T18:04:39.498Z,43.82
2023-07-24T18:07:06.351Z,43.80
2023-07-24T18:09:33.093Z,44.08
2023-07-24T18:11:59.844Z,44.12
2023-07-24T18:14:26.539Z,44.40
2023-07-24T18:16:53.291Z,44.54
2023-07-24T18:19:20.099Z,44.74
2023-07-24T18:21:46.849Z,44.81
2023-07-24T18:24:13.881Z,44.76
2023-07-24T18:26:40.890Z,45.04
2023-07-24T18:29:07.543Z,44.97
2023-07-24T18:31:34.749Z,44.98
2023-07-24T18:34:01.601Z,44.93
2023-07-24T18:36:28.329Z,45.03
2023-07-24T18:38:55.226Z,45.08
2023-07-24T18:41:21.891Z,45.06
2023-07-24T18:43:48.825Z,44.97
2023-07-24T18:46:18.033Z,45.15
2023-07-24T18:48:44.875Z,45.27
2023-07-24T18:51:12.031Z,45.00
2023-07-24T18:53:38.752Z,45.08
2023-07-24T18:56:05.905Z,45.16
2023-07-24T18:58:32.551Z,44.93
2023-07-24T19:00:59.285Z,44.87
2023-07-24T19:03:26.623Z,44.99
2023-07-24T19:05:54.193Z,45.06
2023-07-24T19:08:21.218Z,45.10
2023-07-24T19:10:47.902Z,45.18
2023-07-24T19:13:14.585Z,45.10
2023-07-24T19:15:41.249Z,45.18
2023-07-24T19:18:07.955Z,45.08
2023-07-24T19:20:34.673Z,45.06
2023-07-24T19:23:03.671Z,45.22
2023-07-24T19:25:31.677Z,45.55
2023-07-24T19:27:58.749Z,45.71
2023-07-24T19:30:25.530Z,45.94
2023-07-24T19:32:52.528Z,46.09
2023-07-24T19:35:20.697Z,46.24
2023-07-24T19:37:47.646Z,46.43
2023-07-24T19:40:14.500Z,46.63
2023-07-24T19:42:41.145Z,46.80
2023-07-24T19:45:08.497Z,47.00
2023-07-24T19:47:35.275Z,47.27
2023-07-24T19:50:04.365Z,47.50
2023-07-24T19:52:32.690Z,47.49
2023-07-24T19:54:59.479Z,47.62
2023-07-24T19:57:26.589Z,47.59
2023-07-24T19:59:53.529Z,47.57
2023-07-24T20:02:20.179Z,47.39
2023-07-24T20:04:46.851Z,47.29
2023-07-24T20:07:13.896Z,47.45
2023-07-24T20:09:40.581Z,47.42
2023-07-24T20:12:08.055Z,47.33
2023-07-24T20:14:35.305Z,47.35
2023-07-24T20:17:02.231Z,47.43
2023-07-24T20:19:29.029Z,47.57
2023-07-24T20:21:55.733Z,47.77
2023-07-24T20:24:22.712Z,47.75
2023-07-24T20:26:49.430Z,47.84
2023-07-24T20:29:16.081Z,47.70
2023-07-24T20:31:42.971Z,47.75
2023-07-24T20:34:10.696Z,47.90
2023-07-24T20:36:37.463Z,47.99
2023-07-24T20:39:04.227Z,47.88
2023-07-24T20:41:31.175Z,47.79
2023-07-24T20:43:58.180Z,47.65
2023-07-24T20:46:25.001Z,47.64
2023-07-24T20:48:51.721Z,47.65
2023-07-24T20:51:24.303Z,47.80
2023-07-24T20:53:52.351Z,47.75
2023-07-24T20:56:22.650Z,47.91
2023-07-24T20:58:49.463Z,48.18
2023-07-24T21:01:16.295Z,48.10
2023-07-24T21:03:43.640Z,48.60
2023-07-24T21:06:10.423Z,50.18
2023-07-24T21:08:37.349Z,54.07
2023-07-24T21:11:04.076Z,59.31
2023-07-24T21:13:30.800Z,61.28
2023-07-24T21:15:57.448Z,61.90
2023-07-24T21:18:24.319Z,63.48
2023-07-24T21:20:51.020Z,63.54
2023-07-24T21:23:17.858Z,64.06
2023-07-24T21:25:55.427Z,64.97
2023-07-24T21:28:23.375Z,65.41
2023-07-24T21:30:50.393Z,66.28
2023-07-24T21:33:18.313Z,66.48
2023-07-24T21:35:45.049Z,67.00
2023-07-24T21:38:13.305Z,67.28
2023-07-24T21:40:41.138Z,66.75
2023-07-24T21:43:08.859Z,65.81
2023-07-24T21:45:35.952Z,66.39
2023-07-24T21:48:05.983Z,66.72
2023-07-24T21:50:33.182Z,67.29
2023-07-24T21:53:00.500Z,67.66
2023-07-24T21:55:27.329Z,67.70
2023-07-24T21:57:56.133Z,67.94
2023-07-24T22:00:23.055Z,67.90
2023-07-24T22:02:49.816Z,67.86
2023-07-24T22:05:16.886Z,67.78
2023-07-24T22:07:44.115Z,67.74
2023-07-24T22:10:11.060Z,67.89
2023-07-24T22:12:37.805Z,68.84
2023-07-24T22:15:04.920Z,69.09
2023-07-24T22:17:32.102Z,68.69
2023-07-24T22:19:58.845Z,68.59
2023-07-24T22:22:25.668Z,68.72
2023-07-24T22:24:52.524Z,69.06
2023-07-24T22:27:19.564Z,69.25
2023-07-24T22:29:46.407Z,69.08
2023-07-24T22:32:13.345Z,69.37
2023-07-24T22:34:40.056Z,69.19
2023-07-24T22:37:08.013Z,68.78
2023-07-24T22:39:35.938Z,68.74
2023-07-24T22:42:02.718Z,68.40
2023-07-24T22:44:29.684Z,68.15
2023-07-24T22:46:56.903Z,68.31
2023-07-24T22:49:24.324Z,68.46
2023-07-24T22:51:51.164Z,68.72
2023-07-24T22:54:17.861Z,68.95
2023-07-24T22:56:44.980Z,69.25
2023-07-24T22:59:28.706Z,69.27
2023-07-24T23:01:58.221Z,69.44
2023-07-24T23:04:26.438Z,69.17
2023-07-24T23:06:55.657Z,69.15
2023-07-24T23:09:23.481Z,68.99
2023-07-24T23:11:50.604Z,69.05
2023-07-24T23:14:17.370Z,69.18
2023-07-24T23:16:44.321Z,69.36
2023-07-24T23:19:11.140Z,69.48
2023-07-24T23:21:37.981Z,69.63
2023-07-24T23:24:05.379Z,69.76
2023-07-24T23:26:32.271Z,69.81
2023-07-24T23:28:59.754Z,69.82
2023-07-24T23:31:26.534Z,69.75
2023-07-24T23:33:53.348Z,70.12
2023-07-24T23:36:20.098Z,70.49
2023-07-24T23:38:47.024Z,70.52
2023-07-24T23:41:14.109Z,70.33
2023-07-24T23:43:40.928Z,70.73
2023-07-24T23:46:15.782Z,71.27
2023-07-24T23:48:43.935Z,71.17
2023-07-24T23:51:15.859Z,71.21
2023-07-24T23:53:43.447Z,71.17
2023-07-24T23:56:10.563Z,71.30
2023-07-24T23:58:37.336Z,71.01
